sensor_id;sensor_type;location;lat;lon;timestamp;temperature;humidity
79489;SHT31;68949;53.176;18.088;2023-11-19T00:01:01;1.57;82.97
79489;SHT31;68949;53.176;18.088;2023-11-19T00:03:48;1.55;83.00
79489;SHT31;68949;53.176;18.088;2023-11-19T00:06:16;1.53;82.93
79489;SHT31;68949;53.176;18.088;2023-11-19T00:08:46;1.46;82.94
79489;SHT31;68949;53.176;18.088;2023-11-19T00:11:14;1.40;82.98
79489;SHT31;68949;53.176;18.088;2023-11-19T00:13:42;1.37;83.12
79489;SHT31;68949;53.176;18.088;2023-11-19T00:16:09;1.34;83.20
79489;SHT31;68949;53.176;18.088;2023-11-19T00:18:36;1.32;83.29
79489;SHT31;68949;53.176;18.088;2023-11-19T00:21:06;1.31;83.27
79489;SHT31;68949;53.176;18.088;2023-11-19T00:23:37;1.30;83.22
79489;SHT31;68949;53.176;18.088;2023-11-19T00:26:04;1.28;83.25
79489;SHT31;68949;53.176;18.088;2023-11-19T00:28:32;1.25;83.22
79489;SHT31;68949;53.176;18.088;2023-11-19T00:31:03;1.22;83.28
79489;SHT31;68949;53.176;18.088;2023-11-19T00:33:30;1.18;83.26
79489;SHT31;68949;53.176;18.088;2023-11-19T00:35:57;1.15;83.35
79489;SHT31;68949;53.176;18.088;2023-11-19T00:38:24;1.13;83.39
79489;SHT31;68949;53.176;18.088;2023-11-19T00:40:50;1.13;83.40
79489;SHT31;68949;53.176;18.088;2023-11-19T00:43:17;1.12;83.38
79489;SHT31;68949;53.176;18.088;2023-11-19T00:45:45;1.11;83.35
79489;SHT31;68949;53.176;18.088;2023-11-19T00:48:17;1.10;83.40
79489;SHT31;68949;53.176;18.088;2023-11-19T00:50:43;1.10;83.35
79489;SHT31;68949;53.176;18.088;2023-11-19T00:53:12;1.09;83.39
79489;SHT31;68949;53.176;18.088;2023-11-19T00:55:42;1.09;83.36
79489;SHT31;68949;53.176;18.088;2023-11-19T00:58:09;1.05;83.37
79489;SHT31;68949;53.176;18.088;2023-11-19T01:00:35;1.00;83.34
79489;SHT31;68949;53.176;18.088;2023-11-19T01:03:02;0.97;83.42
79489;SHT31;68949;53.176;18.088;2023-11-19T01:05:29;0.97;83.46
79489;SHT31;68949;53.176;18.088;2023-11-19T01:07:56;0.97;83.43
79489;SHT31;68949;53.176;18.088;2023-11-19T01:10:26;0.95;83.49
79489;SHT31;68949;53.176;18.088;2023-11-19T01:12:53;0.93;83.43
79489;SHT31;68949;53.176;18.088;2023-11-19T01:15:20;0.91;83.56
79489;SHT31;68949;53.176;18.088;2023-11-19T01:17:47;0.90;83.59
79489;SHT31;68949;53.176;18.088;2023-11-19T01:20:13;0.89;83.54
79489;SHT31;68949;53.176;18.088;2023-11-19T01:22:40;0.88;83.60
79489;SHT31;68949;53.176;18.088;2023-11-19T01:25:09;0.89;83.55
79489;SHT31;68949;53.176;18.088;2023-11-19T01:27:36;0.88;83.51
79489;SHT31;68949;53.176;18.088;2023-11-19T01:30:03;0.85;83.50
79489;SHT31;68949;53.176;18.088;2023-11-19T01:32:32;0.80;83.56
79489;SHT31;68949;53.176;18.088;2023-11-19T01:34:59;0.78;83.64
79489;SHT31;68949;53.176;18.088;2023-11-19T01:37:26;0.76;83.63
79489;SHT31;68949;53.176;18.088;2023-11-19T01:39:52;0.73;83.77
79489;SHT31;68949;53.176;18.088;2023-11-19T01:42:21;0.70;83.76
79489;SHT31;68949;53.176;18.088;2023-11-19T01:44:59;0.69;83.81
79489;SHT31;68949;53.176;18.088;2023-11-19T01:47:27;0.65;83.91
79489;SHT31;68949;53.176;18.088;2023-11-19T01:49:57;0.67;83.94
79489;SHT31;68949;53.176;18.088;2023-11-19T01:52:27;0.64;83.94
79489;SHT31;68949;53.176;18.088;2023-11-19T01:54:55;0.63;84.00
79489;SHT31;68949;53.176;18.088;2023-11-19T01:57:22;0.59;84.03
79489;SHT31;68949;53.176;18.088;2023-11-19T01:59:50;0.55;84.09
79489;SHT31;68949;53.176;18.088;2023-11-19T02:02:19;0.51;84.16
79489;SHT31;68949;53.176;18.088;2023-11-19T02:04:49;0.49;84.21
79489;SHT31;68949;53.176;18.088;2023-11-19T02:07:22;0.48;84.32
79489;SHT31;68949;53.176;18.088;2023-11-19T02:09:54;0.49;84.32
79489;SHT31;68949;53.176;18.088;2023-11-19T02:12:21;0.46;84.31
79489;SHT31;68949;53.176;18.088;2023-11-19T02:14:48;0.40;84.39
79489;SHT31;68949;53.176;18.088;2023-11-19T02:17:36;0.35;84.57
79489;SHT31;68949;53.176;18.088;2023-11-19T02:20:04;0.34;84.64
79489;SHT31;68949;53.176;18.088;2023-11-19T02:22:38;0.36;84.62
79489;SHT31;68949;53.176;18.088;2023-11-19T02:25:09;0.38;84.58
79489;SHT31;68949;53.176;18.088;2023-11-19T02:27:55;0.38;84.54
79489;SHT31;68949;53.176;18.088;2023-11-19T02:30:26;0.36;84.57
79489;SHT31;68949;53.176;18.088;2023-11-19T02:32:55;0.34;84.62
79489;SHT31;68949;53.176;18.088;2023-11-19T02:35:24;0.30;84.59
79489;SHT31;68949;53.176;18.088;2023-11-19T02:37:52;0.28;84.65
79489;SHT31;68949;53.176;18.088;2023-11-19T02:40:21;0.28;84.70
79489;SHT31;68949;53.176;18.088;2023-11-19T02:42:49;0.27;84.71
79489;SHT31;68949;53.176;18.088;2023-11-19T02:45:16;0.26;84.78
79489;SHT31;68949;53.176;18.088;2023-11-19T02:47:43;0.26;84.79
79489;SHT31;68949;53.176;18.088;2023-11-19T02:50:11;0.24;84.85
79489;SHT31;68949;53.176;18.088;2023-11-19T02:52:41;0.22;84.80
79489;SHT31;68949;53.176;18.088;2023-11-19T02:55:09;0.21;84.88
79489;SHT31;68949;53.176;18.088;2023-11-19T02:57:39;0.23;84.85
79489;SHT31;68949;53.176;18.088;2023-11-19T03:02:43;0.28;84.80
79489;SHT31;68949;53.176;18.088;2023-11-19T03:05:13;0.27;84.80
79489;SHT31;68949;53.176;18.088;2023-11-19T03:07:41;0.25;84.87
79489;SHT31;68949;53.176;18.088;2023-11-19T03:10:10;0.24;84.92
79489;SHT31;68949;53.176;18.088;2023-11-19T03:12:40;0.24;84.99
79489;SHT31;68949;53.176;18.088;2023-11-19T03:15:08;0.26;84.97
79489;SHT31;68949;53.176;18.088;2023-11-19T03:17:36;0.26;84.98
79489;SHT31;68949;53.176;18.088;2023-11-19T03:20:07;0.29;84.99
79489;SHT31;68949;53.176;18.088;2023-11-19T03:22:39;0.32;84.90
79489;SHT31;68949;53.176;18.088;2023-11-19T03:25:08;0.34;84.89
79489;SHT31;68949;53.176;18.088;2023-11-19T03:27:38;0.30;84.87
79489;SHT31;68949;53.176;18.088;2023-11-19T03:30:06;0.27;84.93
79489;SHT31;68949;53.176;18.088;2023-11-19T03:32:33;0.25;85.00
79489;SHT31;68949;53.176;18.088;2023-11-19T03:35:02;0.27;85.00
79489;SHT31;68949;53.176;18.088;2023-11-19T03:37:39;0.25;84.98
79489;SHT31;68949;53.176;18.088;2023-11-19T03:40:06;0.24;85.03
79489;SHT31;68949;53.176;18.088;2023-11-19T03:42:33;0.23;85.02
79489;SHT31;68949;53.176;18.088;2023-11-19T03:45:00;0.24;85.01
79489;SHT31;68949;53.176;18.088;2023-11-19T03:47:27;0.24;85.03
79489;SHT31;68949;53.176;18.088;2023-11-19T03:49:54;0.23;85.06
79489;SHT31;68949;53.176;18.088;2023-11-19T03:52:21;0.24;85.08
79489;SHT31;68949;53.176;18.088;2023-11-19T03:54:48;0.25;85.10
79489;SHT31;68949;53.176;18.088;2023-11-19T03:57:15;0.26;85.01
79489;SHT31;68949;53.176;18.088;2023-11-19T03:59:42;0.28;85.10
79489;SHT31;68949;53.176;18.088;2023-11-19T04:02:09;0.29;85.04
79489;SHT31;68949;53.176;18.088;2023-11-19T04:04:36;0.29;84.99
79489;SHT31;68949;53.176;18.088;2023-11-19T04:07:05;0.30;84.96
79489;SHT31;68949;53.176;18.088;2023-11-19T04:09:32;0.33;84.90
79489;SHT31;68949;53.176;18.088;2023-11-19T04:11:59;0.38;84.84
79489;SHT31;68949;53.176;18.088;2023-11-19T04:14:27;0.41;84.67
79489;SHT31;68949;53.176;18.088;2023-11-19T04:16:54;0.42;84.67
79489;SHT31;68949;53.176;18.088;2023-11-19T04:19:21;0.39;84.60
79489;SHT31;68949;53.176;18.088;2023-11-19T04:21:51;0.37;84.64
79489;SHT31;68949;53.176;18.088;2023-11-19T04:24:18;0.41;84.67
79489;SHT31;68949;53.176;18.088;2023-11-19T04:26:45;0.43;84.62
79489;SHT31;68949;53.176;18.088;2023-11-19T04:29:13;0.41;84.56
79489;SHT31;68949;53.176;18.088;2023-11-19T04:31:43;0.44;84.65
79489;SHT31;68949;53.176;18.088;2023-11-19T04:34:11;0.46;84.61
79489;SHT31;68949;53.176;18.088;2023-11-19T04:36:39;0.44;84.56
79489;SHT31;68949;53.176;18.088;2023-11-19T04:39:05;0.46;84.72
79489;SHT31;68949;53.176;18.088;2023-11-19T04:41:36;0.50;84.70
79489;SHT31;68949;53.176;18.088;2023-11-19T04:44:12;0.54;84.58
79489;SHT31;68949;53.176;18.088;2023-11-19T04:46:38;0.55;84.48
79489;SHT31;68949;53.176;18.088;2023-11-19T04:49:05;0.50;84.46
79489;SHT31;68949;53.176;18.088;2023-11-19T04:51:37;0.47;84.51
79489;SHT31;68949;53.176;18.088;2023-11-19T04:54:08;0.43;84.60
79489;SHT31;68949;53.176;18.088;2023-11-19T04:56:36;0.43;84.61
79489;SHT31;68949;53.176;18.088;2023-11-19T04:59:06;0.43;84.61
79489;SHT31;68949;53.176;18.088;2023-11-19T05:01:35;0.41;84.60
79489;SHT31;68949;53.176;18.088;2023-11-19T05:04:02;0.38;84.74
79489;SHT31;68949;53.176;18.088;2023-11-19T05:06:29;0.38;84.78
79489;SHT31;68949;53.176;18.088;2023-11-19T05:08:58;0.39;84.82
79489;SHT31;68949;53.176;18.088;2023-11-19T05:11:34;0.40;84.85
79489;SHT31;68949;53.176;18.088;2023-11-19T05:14:04;0.43;84.89
79489;SHT31;68949;53.176;18.088;2023-11-19T05:16:31;0.43;84.87
79489;SHT31;68949;53.176;18.088;2023-11-19T05:18:58;0.42;84.90
79489;SHT31;68949;53.176;18.088;2023-11-19T05:21:25;0.38;84.88
79489;SHT31;68949;53.176;18.088;2023-11-19T05:23:52;0.40;85.01
79489;SHT31;68949;53.176;18.088;2023-11-19T05:26:23;0.42;85.02
79489;SHT31;68949;53.176;18.088;2023-11-19T05:28:56;0.45;85.04
79489;SHT31;68949;53.176;18.088;2023-11-19T05:31:23;0.47;85.07
79489;SHT31;68949;53.176;18.088;2023-11-19T05:33:50;0.47;85.08
79489;SHT31;68949;53.176;18.088;2023-11-19T05:36:17;0.48;85.12
79489;SHT31;68949;53.176;18.088;2023-11-19T05:38:43;0.49;85.18
79489;SHT31;68949;53.176;18.088;2023-11-19T05:41:11;0.53;85.18
79489;SHT31;68949;53.176;18.088;2023-11-19T05:43:38;0.57;85.15
79489;SHT31;68949;53.176;18.088;2023-11-19T05:46:07;0.61;85.10
79489;SHT31;68949;53.176;18.088;2023-11-19T05:48:36;0.63;84.97
79489;SHT31;68949;53.176;18.088;2023-11-19T05:51:04;0.62;84.92
79489;SHT31;68949;53.176;18.088;2023-11-19T05:53:31;0.63;85.01
79489;SHT31;68949;53.176;18.088;2023-11-19T05:55:58;0.66;84.99
79489;SHT31;68949;53.176;18.088;2023-11-19T05:58:28;0.68;85.03
79489;SHT31;68949;53.176;18.088;2023-11-19T06:00:58;0.69;85.02
79489;SHT31;68949;53.176;18.088;2023-11-19T06:03:27;0.69;85.00
79489;SHT31;68949;53.176;18.088;2023-11-19T06:05:54;0.67;85.04
79489;SHT31;68949;53.176;18.088;2023-11-19T06:08:21;0.67;85.11
79489;SHT31;68949;53.176;18.088;2023-11-19T06:10:48;0.69;85.19
79489;SHT31;68949;53.176;18.088;2023-11-19T06:13:17;0.71;85.10
79489;SHT31;68949;53.176;18.088;2023-11-19T06:15:44;0.70;85.13
79489;SHT31;68949;53.176;18.088;2023-11-19T06:18:10;0.69;85.13
79489;SHT31;68949;53.176;18.088;2023-11-19T06:20:40;0.68;85.20
79489;SHT31;68949;53.176;18.088;2023-11-19T06:23:07;0.68;85.21
79489;SHT31;68949;53.176;18.088;2023-11-19T06:25:34;0.70;85.20
79489;SHT31;68949;53.176;18.088;2023-11-19T06:28:01;0.72;85.22
79489;SHT31;68949;53.176;18.088;2023-11-19T06:30:29;0.75;85.20
79489;SHT31;68949;53.176;18.088;2023-11-19T06:32:58;0.76;85.16
79489;SHT31;68949;53.176;18.088;2023-11-19T06:35:26;0.75;85.12
79489;SHT31;68949;53.176;18.088;2023-11-19T06:37:55;0.74;85.08
79489;SHT31;68949;53.176;18.088;2023-11-19T06:40:22;0.73;85.16
79489;SHT31;68949;53.176;18.088;2023-11-19T06:42:49;0.74;85.20
79489;SHT31;68949;53.176;18.088;2023-11-19T06:45:16;0.74;85.21
79489;SHT31;68949;53.176;18.088;2023-11-19T06:47:43;0.77;85.14
79489;SHT31;68949;53.176;18.088;2023-11-19T06:50:09;0.76;85.13
79489;SHT31;68949;53.176;18.088;2023-11-19T06:52:38;0.76;85.19
79489;SHT31;68949;53.176;18.088;2023-11-19T06:55:06;0.77;85.16
79489;SHT31;68949;53.176;18.088;2023-11-19T06:57:34;0.79;85.13
79489;SHT31;68949;53.176;18.088;2023-11-19T07:00:01;0.80;85.08
79489;SHT31;68949;53.176;18.088;2023-11-19T07:02:27;0.82;85.17
79489;SHT31;68949;53.176;18.088;2023-11-19T07:04:57;0.85;85.18
79489;SHT31;68949;53.176;18.088;2023-11-19T07:07:24;0.86;85.04
79489;SHT31;68949;53.176;18.088;2023-11-19T07:09:51;0.87;85.03
79489;SHT31;68949;53.176;18.088;2023-11-19T07:12:17;0.89;85.00
79489;SHT31;68949;53.176;18.088;2023-11-19T07:14:44;0.91;84.97
79489;SHT31;68949;53.176;18.088;2023-11-19T07:17:11;0.91;84.88
79489;SHT31;68949;53.176;18.088;2023-11-19T07:19:37;0.90;84.97
79489;SHT31;68949;53.176;18.088;2023-11-19T07:22:04;0.91;84.98
79489;SHT31;68949;53.176;18.088;2023-11-19T07:24:34;0.92;84.92
79489;SHT31;68949;53.176;18.088;2023-11-19T07:27:00;0.93;84.92
79489;SHT31;68949;53.176;18.088;2023-11-19T07:29:30;0.94;84.88
79489;SHT31;68949;53.176;18.088;2023-11-19T07:31:58;0.95;84.91
79489;SHT31;68949;53.176;18.088;2023-11-19T07:34:24;0.98;84.92
79489;SHT31;68949;53.176;18.088;2023-11-19T07:36:51;1.00;84.91
79489;SHT31;68949;53.176;18.088;2023-11-19T07:39:18;1.00;84.89
79489;SHT31;68949;53.176;18.088;2023-11-19T07:41:47;1.00;84.85
79489;SHT31;68949;53.176;18.088;2023-11-19T07:44:14;1.02;84.83
79489;SHT31;68949;53.176;18.088;2023-11-19T07:46:41;1.07;84.86
79489;SHT31;68949;53.176;18.088;2023-11-19T07:49:09;1.07;84.81
79489;SHT31;68949;53.176;18.088;2023-11-19T07:51:36;1.08;84.86
79489;SHT31;68949;53.176;18.088;2023-11-19T07:54:03;1.08;84.89
79489;SHT31;68949;53.176;18.088;2023-11-19T07:56:31;1.06;84.94
79489;SHT31;68949;53.176;18.088;2023-11-19T07:59:01;1.07;84.93
79489;SHT31;68949;53.176;18.088;2023-11-19T08:01:29;1.07;84.87
79489;SHT31;68949;53.176;18.088;2023-11-19T08:03:55;1.10;84.92
79489;SHT31;68949;53.176;18.088;2023-11-19T08:06:22;1.09;84.86
79489;SHT31;68949;53.176;18.088;2023-11-19T08:08:49;1.11;84.90
79489;SHT31;68949;53.176;18.088;2023-11-19T08:11:16;1.12;84.90
79489;SHT31;68949;53.176;18.088;2023-11-19T08:13:42;1.14;84.90
79489;SHT31;68949;53.176;18.088;2023-11-19T08:16:09;1.14;84.85
79489;SHT31;68949;53.176;18.088;2023-11-19T08:18:37;1.17;84.84
79489;SHT31;68949;53.176;18.088;2023-11-19T08:21:04;1.17;84.88
79489;SHT31;68949;53.176;18.088;2023-11-19T08:23:31;1.16;84.81
79489;SHT31;68949;53.176;18.088;2023-11-19T08:25:57;1.15;84.78
79489;SHT31;68949;53.176;18.088;2023-11-19T08:28:30;1.18;84.80
79489;SHT31;68949;53.176;18.088;2023-11-19T08:30:57;1.20;84.73
79489;SHT31;68949;53.176;18.088;2023-11-19T08:33:26;1.22;84.75
79489;SHT31;68949;53.176;18.088;2023-11-19T08:35:53;1.27;84.70
79489;SHT31;68949;53.176;18.088;2023-11-19T08:38:20;1.27;84.64
79489;SHT31;68949;53.176;18.088;2023-11-19T08:40:46;1.27;84.69
79489;SHT31;68949;53.176;18.088;2023-11-19T08:43:13;1.31;84.65
79489;SHT31;68949;53.176;18.088;2023-11-19T08:45:40;1.32;84.60
79489;SHT31;68949;53.176;18.088;2023-11-19T08:48:06;1.35;84.66
79489;SHT31;68949;53.176;18.088;2023-11-19T08:50:33;1.36;84.64
79489;SHT31;68949;53.176;18.088;2023-11-19T08:53:01;1.37;84.63
79489;SHT31;68949;53.176;18.088;2023-11-19T08:55:28;1.38;84.58
79489;SHT31;68949;53.176;18.088;2023-11-19T08:57:54;1.39;84.48
79489;SHT31;68949;53.176;18.088;2023-11-19T09:00:21;1.38;84.50
79489;SHT31;68949;53.176;18.088;2023-11-19T09:02:48;1.37;84.57
79489;SHT31;68949;53.176;18.088;2023-11-19T09:05:15;1.37;84.68
79489;SHT31;68949;53.176;18.088;2023-11-19T09:07:41;1.37;84.78
79489;SHT31;68949;53.176;18.088;2023-11-19T09:10:08;1.39;84.81
79489;SHT31;68949;53.176;18.088;2023-11-19T09:12:35;1.41;84.88
79489;SHT31;68949;53.176;18.088;2023-11-19T09:15:02;1.45;84.93
79489;SHT31;68949;53.176;18.088;2023-11-19T09:17:29;1.49;84.82
79489;SHT31;68949;53.176;18.088;2023-11-19T09:19:56;1.49;84.78
79489;SHT31;68949;53.176;18.088;2023-11-19T09:22:23;1.51;84.92
79489;SHT31;68949;53.176;18.088;2023-11-19T09:24:49;1.58;84.99
79489;SHT31;68949;53.176;18.088;2023-11-19T09:27:16;1.65;85.03
79489;SHT31;68949;53.176;18.088;2023-11-19T09:29:43;1.71;84.84
79489;SHT31;68949;53.176;18.088;2023-11-19T09:32:12;1.69;84.82
79489;SHT31;68949;53.176;18.088;2023-11-19T09:34:38;1.71;84.91
79489;SHT31;68949;53.176;18.088;2023-11-19T09:37:05;1.75;84.96
79489;SHT31;68949;53.176;18.088;2023-11-19T09:39:32;1.80;84.80
79489;SHT31;68949;53.176;18.088;2023-11-19T09:41:58;1.82;84.79
79489;SHT31;68949;53.176;18.088;2023-11-19T09:44:25;1.81;84.73
79489;SHT31;68949;53.176;18.088;2023-11-19T09:46:53;1.81;84.86
79489;SHT31;68949;53.176;18.088;2023-11-19T09:49:21;1.85;84.97
79489;SHT31;68949;53.176;18.088;2023-11-19T09:51:52;1.89;84.84
79489;SHT31;68949;53.176;18.088;2023-11-19T09:54:19;1.91;84.76
79489;SHT31;68949;53.176;18.088;2023-11-19T09:56:46;1.95;84.73
79489;SHT31;68949;53.176;18.088;2023-11-19T09:59:13;1.96;84.67
79489;SHT31;68949;53.176;18.088;2023-11-19T10:01:40;1.93;84.53
79489;SHT31;68949;53.176;18.088;2023-11-19T10:04:06;1.93;84.60
79489;SHT31;68949;53.176;18.088;2023-11-19T10:06:34;1.95;84.66
79489;SHT31;68949;53.176;18.088;2023-11-19T10:09:01;1.96;84.66
79489;SHT31;68949;53.176;18.088;2023-11-19T10:11:31;1.95;84.70
79489;SHT31;68949;53.176;18.088;2023-11-19T10:13:57;1.95;84.72
79489;SHT31;68949;53.176;18.088;2023-11-19T10:16:30;1.94;84.75
79489;SHT31;68949;53.176;18.088;2023-11-19T10:18:57;1.93;84.70
79489;SHT31;68949;53.176;18.088;2023-11-19T10:21:24;1.92;84.74
79489;SHT31;68949;53.176;18.088;2023-11-19T10:23:55;1.92;84.78
79489;SHT31;68949;53.176;18.088;2023-11-19T10:26:25;1.92;84.87
79489;SHT31;68949;53.176;18.088;2023-11-19T10:28:53;1.95;84.90
79489;SHT31;68949;53.176;18.088;2023-11-19T10:31:22;1.95;84.94
79489;SHT31;68949;53.176;18.088;2023-11-19T10:33:51;1.97;85.02
79489;SHT31;68949;53.176;18.088;2023-11-19T10:36:19;2.00;85.01
79489;SHT31;68949;53.176;18.088;2023-11-19T10:38:51;2.03;85.09
79489;SHT31;68949;53.176;18.088;2023-11-19T10:41:26;2.04;85.00
79489;SHT31;68949;53.176;18.088;2023-11-19T10:43:58;2.00;84.93
79489;SHT31;68949;53.176;18.088;2023-11-19T10:46:41;2.00;85.11
79489;SHT31;68949;53.176;18.088;2023-11-19T10:49:10;2.04;85.18
79489;SHT31;68949;53.176;18.088;2023-11-19T10:51:37;2.07;85.04
79489;SHT31;68949;53.176;18.088;2023-11-19T10:54:12;2.08;85.02
79489;SHT31;68949;53.176;18.088;2023-11-19T10:56:45;2.05;85.01
79489;SHT31;68949;53.176;18.088;2023-11-19T10:59:21;2.06;85.16
79489;SHT31;68949;53.176;18.088;2023-11-19T11:01:48;2.06;85.09
79489;SHT31;68949;53.176;18.088;2023-11-19T11:04:24;2.03;85.11
79489;SHT31;68949;53.176;18.088;2023-11-19T11:06:55;2.07;85.18
79489;SHT31;68949;53.176;18.088;2023-11-19T11:09:22;2.08;85.25
79489;SHT31;68949;53.176;18.088;2023-11-19T11:11:49;2.07;85.36
79489;SHT31;68949;53.176;18.088;2023-11-19T11:14:17;2.08;85.44
79489;SHT31;68949;53.176;18.088;2023-11-19T11:16:48;2.09;85.50
79489;SHT31;68949;53.176;18.088;2023-11-19T11:19:16;2.09;85.49
79489;SHT31;68949;53.176;18.088;2023-11-19T11:21:46;2.08;85.50
79489;SHT31;68949;53.176;18.088;2023-11-19T11:24:25;2.06;85.56
79489;SHT31;68949;53.176;18.088;2023-11-19T11:35:50;1.94;85.99
79489;SHT31;68949;53.176;18.088;2023-11-19T11:38:31;1.88;86.07
79489;SHT31;68949;53.176;18.088;2023-11-19T11:41:16;1.85;86.28
79489;SHT31;68949;53.176;18.088;2023-11-19T11:43:49;1.81;86.32
79489;SHT31;68949;53.176;18.088;2023-11-19T11:49:01;1.74;86.53
79489;SHT31;68949;53.176;18.088;2023-11-19T11:54:09;1.76;86.60
79489;SHT31;68949;53.176;18.088;2023-11-19T11:57:13;1.75;86.63
79489;SHT31;68949;53.176;18.088;2023-11-19T11:59:46;1.73;86.67
79489;SHT31;68949;53.176;18.088;2023-11-19T12:02:19;1.73;86.73
79489;SHT31;68949;53.176;18.088;2023-11-19T12:04:49;1.72;86.71
79489;SHT31;68949;53.176;18.088;2023-11-19T12:07:19;1.70;86.80
79489;SHT31;68949;53.176;18.088;2023-11-19T12:10:07;1.68;86.88
79489;SHT31;68949;53.176;18.088;2023-11-19T12:12:39;1.66;86.93
79489;SHT31;68949;53.176;18.088;2023-11-19T12:15:08;1.65;87.00
79489;SHT31;68949;53.176;18.088;2023-11-19T12:20:16;1.61;87.12
79489;SHT31;68949;53.176;18.088;2023-11-19T12:22:48;1.61;87.20
79489;SHT31;68949;53.176;18.088;2023-11-19T12:25:36;1.60;87.25
79489;SHT31;68949;53.176;18.088;2023-11-19T12:28:02;1.60;87.27
79489;SHT31;68949;53.176;18.088;2023-11-19T12:30:31;1.59;87.28
79489;SHT31;68949;53.176;18.088;2023-11-19T12:32:58;1.59;87.31
79489;SHT31;68949;53.176;18.088;2023-11-19T12:35:25;1.59;87.39
79489;SHT31;68949;53.176;18.088;2023-11-19T12:37:52;1.60;87.40
79489;SHT31;68949;53.176;18.088;2023-11-19T12:40:20;1.60;87.41
79489;SHT31;68949;53.176;18.088;2023-11-19T12:42:49;1.60;87.44
79489;SHT31;68949;53.176;18.088;2023-11-19T12:45:19;1.59;87.43
79489;SHT31;68949;53.176;18.088;2023-11-19T12:47:47;1.61;87.50
79489;SHT31;68949;53.176;18.088;2023-11-19T12:50:15;1.63;87.50
79489;SHT31;68949;53.176;18.088;2023-11-19T12:52:57;1.65;87.46
79489;SHT31;68949;53.176;18.088;2023-11-19T12:55:26;1.65;87.50
79489;SHT31;68949;53.176;18.088;2023-11-19T12:57:55;1.66;87.49
79489;SHT31;68949;53.176;18.088;2023-11-19T13:00:25;1.69;87.47
79489;SHT31;68949;53.176;18.088;2023-11-19T13:02:54;1.70;87.48
79489;SHT31;68949;53.176;18.088;2023-11-19T13:05:29;1.71;87.40
79489;SHT31;68949;53.176;18.088;2023-11-19T13:10:33;1.73;87.41
79489;SHT31;68949;53.176;18.088;2023-11-19T13:13:18;1.74;87.37
79489;SHT31;68949;53.176;18.088;2023-11-19T13:15:45;1.75;87.40
79489;SHT31;68949;53.176;18.088;2023-11-19T13:18:12;1.77;87.38
79489;SHT31;68949;53.176;18.088;2023-11-19T13:20:42;1.79;87.33
79489;SHT31;68949;53.176;18.088;2023-11-19T13:23:09;1.80;87.31
79489;SHT31;68949;53.176;18.088;2023-11-19T13:25:41;1.78;87.30
79489;SHT31;68949;53.176;18.088;2023-11-19T13:28:07;1.78;87.32
79489;SHT31;68949;53.176;18.088;2023-11-19T13:30:34;1.79;87.37
79489;SHT31;68949;53.176;18.088;2023-11-19T13:33:01;1.80;87.33
79489;SHT31;68949;53.176;18.088;2023-11-19T13:35:27;1.80;87.46
79489;SHT31;68949;53.176;18.088;2023-11-19T13:37:54;1.82;87.42
79489;SHT31;68949;53.176;18.088;2023-11-19T13:40:21;1.80;87.34
79489;SHT31;68949;53.176;18.088;2023-11-19T13:42:48;1.77;87.40
79489;SHT31;68949;53.176;18.088;2023-11-19T13:45:15;1.76;87.42
79489;SHT31;68949;53.176;18.088;2023-11-19T13:47:44;1.77;87.43
79489;SHT31;68949;53.176;18.088;2023-11-19T13:50:13;1.77;87.44
79489;SHT31;68949;53.176;18.088;2023-11-19T13:52:43;1.78;87.46
79489;SHT31;68949;53.176;18.088;2023-11-19T13:55:13;1.81;87.51
79489;SHT31;68949;53.176;18.088;2023-11-19T13:57:41;1.80;87.38
79489;SHT31;68949;53.176;18.088;2023-11-19T14:00:10;1.77;87.40
79489;SHT31;68949;53.176;18.088;2023-11-19T14:02:42;1.74;87.46
79489;SHT31;68949;53.176;18.088;2023-11-19T14:05:10;1.71;87.51
79489;SHT31;68949;53.176;18.088;2023-11-19T14:07:40;1.69;87.60
79489;SHT31;68949;53.176;18.088;2023-11-19T14:10:07;1.65;87.60
79489;SHT31;68949;53.176;18.088;2023-11-19T14:12:38;1.62;87.66
79489;SHT31;68949;53.176;18.088;2023-11-19T14:15:08;1.60;87.78
79489;SHT31;68949;53.176;18.088;2023-11-19T14:17:38;1.59;87.85
79489;SHT31;68949;53.176;18.088;2023-11-19T14:20:06;1.60;87.88
79489;SHT31;68949;53.176;18.088;2023-11-19T14:22:39;1.58;87.89
79489;SHT31;68949;53.176;18.088;2023-11-19T14:25:07;1.56;87.92
79489;SHT31;68949;53.176;18.088;2023-11-19T14:27:37;1.56;87.99
79489;SHT31;68949;53.176;18.088;2023-11-19T14:30:05;1.58;88.00
79489;SHT31;68949;53.176;18.088;2023-11-19T14:32:33;1.57;87.98
79489;SHT31;68949;53.176;18.088;2023-11-19T14:35:02;1.54;88.00
79489;SHT31;68949;53.176;18.088;2023-11-19T14:37:30;1.51;88.07
79489;SHT31;68949;53.176;18.088;2023-11-19T14:40:00;1.48;88.10
79489;SHT31;68949;53.176;18.088;2023-11-19T14:42:30;1.47;88.19
79489;SHT31;68949;53.176;18.088;2023-11-19T14:44:57;1.49;88.20
79489;SHT31;68949;53.176;18.088;2023-11-19T14:47:25;1.48;88.24
79489;SHT31;68949;53.176;18.088;2023-11-19T14:49:51;1.48;88.21
79489;SHT31;68949;53.176;18.088;2023-11-19T14:52:18;1.48;88.26
79489;SHT31;68949;53.176;18.088;2023-11-19T14:54:45;1.50;88.21
79489;SHT31;68949;53.176;18.088;2023-11-19T14:57:12;1.51;88.22
79489;SHT31;68949;53.176;18.088;2023-11-19T14:59:39;1.49;88.24
79489;SHT31;68949;53.176;18.088;2023-11-19T15:02:07;1.48;88.32
79489;SHT31;68949;53.176;18.088;2023-11-19T15:04:34;1.48;88.33
79489;SHT31;68949;53.176;18.088;2023-11-19T15:07:01;1.51;88.31
79489;SHT31;68949;53.176;18.088;2023-11-19T15:09:27;1.52;88.31
79489;SHT31;68949;53.176;18.088;2023-11-19T15:11:54;1.53;88.33
79489;SHT31;68949;53.176;18.088;2023-11-19T15:14:21;1.54;88.29
79489;SHT31;68949;53.176;18.088;2023-11-19T15:16:48;1.52;88.28
79489;SHT31;68949;53.176;18.088;2023-11-19T15:19:17;1.52;88.27
79489;SHT31;68949;53.176;18.088;2023-11-19T15:21:46;1.53;88.34
79489;SHT31;68949;53.176;18.088;2023-11-19T15:24:14;1.55;88.33
79489;SHT31;68949;53.176;18.088;2023-11-19T15:26:41;1.55;88.33
79489;SHT31;68949;53.176;18.088;2023-11-19T15:29:07;1.56;88.30
79489;SHT31;68949;53.176;18.088;2023-11-19T15:31:34;1.53;88.32
79489;SHT31;68949;53.176;18.088;2023-11-19T15:34:01;1.53;88.37
79489;SHT31;68949;53.176;18.088;2023-11-19T15:36:29;1.53;88.36
79489;SHT31;68949;53.176;18.088;2023-11-19T15:38:55;1.54;88.38
79489;SHT31;68949;53.176;18.088;2023-11-19T15:41:22;1.54;88.38
79489;SHT31;68949;53.176;18.088;2023-11-19T15:43:48;1.53;88.40
79489;SHT31;68949;53.176;18.088;2023-11-19T15:46:16;1.52;88.42
79489;SHT31;68949;53.176;18.088;2023-11-19T15:48:43;1.52;88.45
79489;SHT31;68949;53.176;18.088;2023-11-19T15:51:09;1.53;88.52
79489;SHT31;68949;53.176;18.088;2023-11-19T15:53:36;1.55;88.44
79489;SHT31;68949;53.176;18.088;2023-11-19T15:56:04;1.54;88.46
79489;SHT31;68949;53.176;18.088;2023-11-19T15:58:31;1.54;88.50
79489;SHT31;68949;53.176;18.088;2023-11-19T16:00:59;1.53;88.47